sensor_id;sensor_type;location;lat;lon;timestamp;P1;durP1;ratioP1;P2;durP2;ratioP2
55312;SDS011;46892;45.668;11.756;2022-07-10T00:00:27;6.70;;;3.33;;
55312;SDS011;46892;45.668;11.756;2022-07-10T00:02:55;6.33;;;3.13;;
55312;SDS011;46892;45.668;11.756;2022-07-10T00:05:21;4.43;;;3.10;;
55312;SDS011;46892;45.668;11.756;2022-07-10T00:07:48;5.97;;;3.00;;
55312;SDS011;46892;45.668;11.756;2022-07-10T00:10:15;5.23;;;2.67;;
55312;SDS011;46892;45.668;11.756;2022-07-10T00:12:45;4.45;;;2.88;;
55312;SDS011;46892;45.668;11.756;2022-07-10T00:15:11;5.17;;;2.90;;
55312;SDS011;46892;45.668;11.756;2022-07-10T00:17:38;6.80;;;3.10;;
55312;SDS011;46892;45.668;11.756;2022-07-10T00:20:04;6.60;;;3.37;;
55312;SDS011;46892;45.668;11.756;2022-07-10T00:22:32;5.63;;;3.10;;
55312;SDS011;46892;45.668;11.756;2022-07-10T00:25:00;5.67;;;2.90;;
55312;SDS011;46892;45.668;11.756;2022-07-10T00:27:29;5.55;;;3.33;;
55312;SDS011;46892;45.668;11.756;2022-07-10T00:29:54;5.23;;;3.63;;
55312;SDS011;46892;45.668;11.756;2022-07-10T00:32:21;4.73;;;2.73;;
55312;SDS011;46892;45.668;11.756;2022-07-10T00:34:46;4.27;;;2.90;;
55312;SDS011;46892;45.668;11.756;2022-07-10T00:37:12;8.87;;;3.00;;
55312;SDS011;46892;45.668;11.756;2022-07-10T00:39:38;6.40;;;3.07;;
55312;SDS011;46892;45.668;11.756;2022-07-10T00:42:07;5.83;;;3.23;;
55312;SDS011;46892;45.668;11.756;2022-07-10T00:44:38;4.90;;;3.20;;
55312;SDS011;46892;45.668;11.756;2022-07-10T00:47:04;4.97;;;3.60;;
55312;SDS011;46892;45.668;11.756;2022-07-10T00:49:31;4.17;;;3.20;;
55312;SDS011;46892;45.668;11.756;2022-07-10T00:51:57;4.50;;;3.23;;
55312;SDS011;46892;45.668;11.756;2022-07-10T00:54:26;5.03;;;3.30;;
55312;SDS011;46892;45.668;11.756;2022-07-10T00:56:53;3.97;;;3.50;;
55312;SDS011;46892;45.668;11.756;2022-07-10T00:59:19;5.77;;;3.90;;
55312;SDS011;46892;45.668;11.756;2022-07-10T01:01:46;5.53;;;3.60;;
55312;SDS011;46892;45.668;11.756;2022-07-10T01:04:13;5.70;;;4.00;;
55312;SDS011;46892;45.668;11.756;2022-07-10T01:06:38;5.60;;;4.10;;
55312;SDS011;46892;45.668;11.756;2022-07-10T01:09:04;4.97;;;4.30;;
55312;SDS011;46892;45.668;11.756;2022-07-10T01:11:30;5.53;;;4.07;;
55312;SDS011;46892;45.668;11.756;2022-07-10T01:13:58;6.97;;;4.50;;
55312;SDS011;46892;45.668;11.756;2022-07-10T01:16:24;8.57;;;4.90;;
55312;SDS011;46892;45.668;11.756;2022-07-10T01:18:50;5.97;;;4.77;;
55312;SDS011;46892;45.668;11.756;2022-07-10T01:21:26;7.63;;;5.07;;
55312;SDS011;46892;45.668;11.756;2022-07-10T01:23:53;6.33;;;4.77;;
55312;SDS011;46892;45.668;11.756;2022-07-10T01:26:19;6.37;;;5.00;;
55312;SDS011;46892;45.668;11.756;2022-07-10T01:28:48;7.87;;;5.07;;
55312;SDS011;46892;45.668;11.756;2022-07-10T01:31:15;10.47;;;5.60;;
55312;SDS011;46892;45.668;11.756;2022-07-10T01:33:42;6.40;;;5.57;;
55312;SDS011;46892;45.668;11.756;2022-07-10T01:36:09;7.57;;;5.50;;
55312;SDS011;46892;45.668;11.756;2022-07-10T01:38:35;8.07;;;5.40;;
55312;SDS011;46892;45.668;11.756;2022-07-10T01:41:00;5.73;;;5.07;;
55312;SDS011;46892;45.668;11.756;2022-07-10T01:43:26;6.40;;;5.30;;
55312;SDS011;46892;45.668;11.756;2022-07-10T01:45:52;6.63;;;5.20;;
55312;SDS011;46892;45.668;11.756;2022-07-10T01:48:17;6.73;;;5.60;;
55312;SDS011;46892;45.668;11.756;2022-07-10T01:50:43;7.90;;;5.07;;
55312;SDS011;46892;45.668;11.756;2022-07-10T01:53:09;7.40;;;6.07;;
55312;SDS011;46892;45.668;11.756;2022-07-10T01:55:35;9.27;;;5.67;;
55312;SDS011;46892;45.668;11.756;2022-07-10T01:58:02;7.53;;;5.80;;
55312;SDS011;46892;45.668;11.756;2022-07-10T02:00:27;9.13;;;5.27;;
55312;SDS011;46892;45.668;11.756;2022-07-10T02:02:53;7.57;;;5.33;;
55312;SDS011;46892;45.668;11.756;2022-07-10T02:05:37;7.30;;;5.73;;
55312;SDS011;46892;45.668;11.756;2022-07-10T02:08:03;6.53;;;4.90;;
55312;SDS011;46892;45.668;11.756;2022-07-10T02:10:31;5.90;;;4.80;;
55312;SDS011;46892;45.668;11.756;2022-07-10T02:12:57;7.77;;;5.07;;
55312;SDS011;46892;45.668;11.756;2022-07-10T02:15:22;6.07;;;4.77;;
55312;SDS011;46892;45.668;11.756;2022-07-10T02:17:48;5.77;;;4.73;;
55312;SDS011;46892;45.668;11.756;2022-07-10T02:20:14;7.53;;;5.00;;
55312;SDS011;46892;45.668;11.756;2022-07-10T02:22:40;6.27;;;5.00;;
55312;SDS011;46892;45.668;11.756;2022-07-10T02:25:07;7.17;;;4.73;;
55312;SDS011;46892;45.668;11.756;2022-07-10T02:27:33;8.00;;;5.20;;
55312;SDS011;46892;45.668;11.756;2022-07-10T02:29:59;7.77;;;5.40;;
55312;SDS011;46892;45.668;11.756;2022-07-10T02:32:24;10.17;;;4.60;;
55312;SDS011;46892;45.668;11.756;2022-07-10T02:34:50;7.07;;;5.20;;
55312;SDS011;46892;45.668;11.756;2022-07-10T02:37:16;6.00;;;4.70;;
55312;SDS011;46892;45.668;11.756;2022-07-10T02:39:42;7.07;;;5.13;;
55312;SDS011;46892;45.668;11.756;2022-07-10T02:42:07;5.93;;;4.80;;
55312;SDS011;46892;45.668;11.756;2022-07-10T02:44:33;7.13;;;5.17;;
55312;SDS011;46892;45.668;11.756;2022-07-10T02:46:59;6.60;;;4.70;;
55312;SDS011;46892;45.668;11.756;2022-07-10T02:49:25;5.73;;;4.90;;
55312;SDS011;46892;45.668;11.756;2022-07-10T02:51:51;5.60;;;4.60;;
55312;SDS011;46892;45.668;11.756;2022-07-10T02:54:16;6.53;;;4.83;;
55312;SDS011;46892;45.668;11.756;2022-07-10T02:56:42;6.87;;;4.57;;
55312;SDS011;46892;45.668;11.756;2022-07-10T02:59:07;6.70;;;5.33;;
55312;SDS011;46892;45.668;11.756;2022-07-10T03:01:33;7.43;;;4.87;;
55312;SDS011;46892;45.668;11.756;2022-07-10T03:03:59;9.87;;;5.63;;
55312;SDS011;46892;45.668;11.756;2022-07-10T03:06:26;5.77;;;4.77;;
55312;SDS011;46892;45.668;11.756;2022-07-10T03:08:52;8.60;;;5.27;;
55312;SDS011;46892;45.668;11.756;2022-07-10T03:11:17;6.90;;;5.50;;
55312;SDS011;46892;45.668;11.756;2022-07-10T03:13:43;6.30;;;5.23;;
55312;SDS011;46892;45.668;11.756;2022-07-10T03:16:09;9.07;;;5.47;;
55312;SDS011;46892;45.668;11.756;2022-07-10T03:18:34;8.57;;;5.13;;
55312;SDS011;46892;45.668;11.756;2022-07-10T03:21:00;7.60;;;5.63;;
55312;SDS011;46892;45.668;11.756;2022-07-10T03:23:26;8.43;;;4.73;;
55312;SDS011;46892;45.668;11.756;2022-07-10T03:25:51;7.03;;;4.80;;
55312;SDS011;46892;45.668;11.756;2022-07-10T03:28:17;7.50;;;5.10;;
55312;SDS011;46892;45.668;11.756;2022-07-10T03:30:43;6.50;;;5.07;;
55312;SDS011;46892;45.668;11.756;2022-07-10T03:33:08;6.23;;;5.40;;
55312;SDS011;46892;45.668;11.756;2022-07-10T03:35:34;8.53;;;5.50;;
55312;SDS011;46892;45.668;11.756;2022-07-10T03:38:00;8.77;;;5.47;;
55312;SDS011;46892;45.668;11.756;2022-07-10T03:40:25;7.73;;;5.10;;
55312;SDS011;46892;45.668;11.756;2022-07-10T03:42:52;7.30;;;5.07;;
55312;SDS011;46892;45.668;11.756;2022-07-10T03:45:18;7.67;;;5.30;;
55312;SDS011;46892;45.668;11.756;2022-07-10T03:47:43;8.00;;;5.43;;
55312;SDS011;46892;45.668;11.756;2022-07-10T03:50:09;7.10;;;5.83;;
55312;SDS011;46892;45.668;11.756;2022-07-10T03:52:35;6.57;;;5.07;;
55312;SDS011;46892;45.668;11.756;2022-07-10T03:55:00;10.17;;;5.37;;
55312;SDS011;46892;45.668;11.756;2022-07-10T03:57:26;9.80;;;5.27;;
55312;SDS011;46892;45.668;11.756;2022-07-10T04:00:11;6.37;;;5.13;;
55312;SDS011;46892;45.668;11.756;2022-07-10T04:02:37;6.73;;;5.23;;
55312;SDS011;46892;45.668;11.756;2022-07-10T04:05:06;7.00;;;5.67;;
55312;SDS011;46892;45.668;11.756;2022-07-10T04:07:33;7.38;;;5.20;;
55312;SDS011;46892;45.668;11.756;2022-07-10T04:09:59;6.87;;;5.57;;
55312;SDS011;46892;45.668;11.756;2022-07-10T04:12:25;6.93;;;5.17;;
55312;SDS011;46892;45.668;11.756;2022-07-10T04:14:50;6.90;;;5.03;;
55312;SDS011;46892;45.668;11.756;2022-07-10T04:17:17;7.73;;;5.27;;
55312;SDS011;46892;45.668;11.756;2022-07-10T04:19:43;9.63;;;5.87;;
55312;SDS011;46892;45.668;11.756;2022-07-10T04:22:09;8.47;;;5.60;;
55312;SDS011;46892;45.668;11.756;2022-07-10T04:24:34;6.73;;;5.03;;
55312;SDS011;46892;45.668;11.756;2022-07-10T04:27:00;6.67;;;5.40;;
55312;SDS011;46892;45.668;11.756;2022-07-10T04:29:26;9.80;;;6.03;;
55312;SDS011;46892;45.668;11.756;2022-07-10T04:31:52;6.63;;;5.37;;
55312;SDS011;46892;45.668;11.756;2022-07-10T04:34:17;7.00;;;5.30;;
55312;SDS011;46892;45.668;11.756;2022-07-10T04:36:43;8.93;;;5.40;;
55312;SDS011;46892;45.668;11.756;2022-07-10T04:39:09;7.20;;;4.60;;
55312;SDS011;46892;45.668;11.756;2022-07-10T04:41:35;5.50;;;4.60;;
55312;SDS011;46892;45.668;11.756;2022-07-10T04:44:01;6.67;;;4.63;;
55312;SDS011;46892;45.668;11.756;2022-07-10T04:46:26;5.97;;;4.07;;
55312;SDS011;46892;45.668;11.756;2022-07-10T04:48:52;6.30;;;4.60;;
55312;SDS011;46892;45.668;11.756;2022-07-10T04:51:18;7.07;;;4.40;;
55312;SDS011;46892;45.668;11.756;2022-07-10T04:53:44;9.03;;;4.93;;
55312;SDS011;46892;45.668;11.756;2022-07-10T04:56:09;7.67;;;4.10;;
55312;SDS011;46892;45.668;11.756;2022-07-10T04:58:35;7.03;;;4.17;;
55312;SDS011;46892;45.668;11.756;2022-07-10T05:01:01;5.50;;;4.07;;
55312;SDS011;46892;45.668;11.756;2022-07-10T05:03:29;4.53;;;3.53;;
55312;SDS011;46892;45.668;11.756;2022-07-10T05:05:55;6.73;;;3.90;;
55312;SDS011;46892;45.668;11.756;2022-07-10T05:08:21;6.17;;;3.47;;
55312;SDS011;46892;45.668;11.756;2022-07-10T05:10:46;5.47;;;3.47;;
55312;SDS011;46892;45.668;11.756;2022-07-10T05:13:12;3.87;;;3.00;;
55312;SDS011;46892;45.668;11.756;2022-07-10T05:15:38;4.50;;;3.57;;
55312;SDS011;46892;45.668;11.756;2022-07-10T05:18:04;5.10;;;3.20;;
55312;SDS011;46892;45.668;11.756;2022-07-10T05:20:30;5.00;;;3.80;;
55312;SDS011;46892;45.668;11.756;2022-07-10T05:22:56;4.77;;;3.37;;
55312;SDS011;46892;45.668;11.756;2022-07-10T05:25:21;6.80;;;3.67;;
55312;SDS011;46892;45.668;11.756;2022-07-10T05:27:47;7.20;;;3.60;;
55312;SDS011;46892;45.668;11.756;2022-07-10T05:30:13;4.90;;;3.63;;
55312;SDS011;46892;45.668;11.756;2022-07-10T05:32:45;6.80;;;4.00;;
55312;SDS011;46892;45.668;11.756;2022-07-10T05:35:14;5.03;;;3.43;;
55312;SDS011;46892;45.668;11.756;2022-07-10T05:37:40;5.13;;;4.10;;
55312;SDS011;46892;45.668;11.756;2022-07-10T05:40:06;5.13;;;3.80;;
55312;SDS011;46892;45.668;11.756;2022-07-10T05:42:33;6.23;;;3.70;;
55312;SDS011;46892;45.668;11.756;2022-07-10T05:44:59;7.90;;;4.30;;
55312;SDS011;46892;45.668;11.756;2022-07-10T05:47:25;6.10;;;4.63;;
55312;SDS011;46892;45.668;11.756;2022-07-10T05:49:50;6.80;;;4.60;;
55312;SDS011;46892;45.668;11.756;2022-07-10T05:52:16;5.20;;;3.90;;
55312;SDS011;46892;45.668;11.756;2022-07-10T05:54:42;6.33;;;3.90;;
55312;SDS011;46892;45.668;11.756;2022-07-10T05:57:07;5.50;;;3.70;;
55312;SDS011;46892;45.668;11.756;2022-07-10T05:59:33;6.80;;;4.33;;
55312;SDS011;46892;45.668;11.756;2022-07-10T06:02:00;5.97;;;3.70;;
55312;SDS011;46892;45.668;11.756;2022-07-10T06:04:28;6.77;;;4.00;;
55312;SDS011;46892;45.668;11.756;2022-07-10T06:06:54;6.80;;;3.90;;
55312;SDS011;46892;45.668;11.756;2022-07-10T06:09:19;5.87;;;4.60;;
55312;SDS011;46892;45.668;11.756;2022-07-10T06:11:45;5.63;;;4.30;;
55312;SDS011;46892;45.668;11.756;2022-07-10T06:14:13;4.77;;;3.47;;
55312;SDS011;46892;45.668;11.756;2022-07-10T06:16:39;6.50;;;4.07;;
55312;SDS011;46892;45.668;11.756;2022-07-10T06:19:04;8.90;;;4.90;;
55312;SDS011;46892;45.668;11.756;2022-07-10T06:21:30;7.03;;;3.93;;
55312;SDS011;46892;45.668;11.756;2022-07-10T06:23:56;6.60;;;4.10;;
55312;SDS011;46892;45.668;11.756;2022-07-10T06:26:21;6.83;;;4.10;;
55312;SDS011;46892;45.668;11.756;2022-07-10T06:28:47;5.47;;;4.00;;
55312;SDS011;46892;45.668;11.756;2022-07-10T06:31:13;5.75;;;4.00;;
55312;SDS011;46892;45.668;11.756;2022-07-10T06:33:38;6.35;;;4.28;;
55312;SDS011;46892;45.668;11.756;2022-07-10T06:36:05;6.25;;;3.72;;
55312;SDS011;46892;45.668;11.756;2022-07-10T06:38:31;4.50;;;3.60;;
55312;SDS011;46892;45.668;11.756;2022-07-10T06:40:57;3.60;;;2.78;;
55312;SDS011;46892;45.668;11.756;2022-07-10T06:43:22;4.72;;;2.60;;
55312;SDS011;46892;45.668;11.756;2022-07-10T06:45:48;4.00;;;2.80;;
55312;SDS011;46892;45.668;11.756;2022-07-10T06:48:14;5.57;;;2.72;;
55312;SDS011;46892;45.668;11.756;2022-07-10T06:50:40;4.28;;;2.63;;
55312;SDS011;46892;45.668;11.756;2022-07-10T06:53:07;4.40;;;2.60;;
55312;SDS011;46892;45.668;11.756;2022-07-10T06:55:32;3.03;;;1.95;;
55312;SDS011;46892;45.668;11.756;2022-07-10T06:57:59;2.45;;;1.42;;
55312;SDS011;46892;45.668;11.756;2022-07-10T07:00:25;3.20;;;1.23;;
55312;SDS011;46892;45.668;11.756;2022-07-10T07:02:51;1.50;;;1.20;;
55312;SDS011;46892;45.668;11.756;2022-07-10T07:05:17;2.97;;;1.63;;
55312;SDS011;46892;45.668;11.756;2022-07-10T07:07:43;2.45;;;1.23;;
55312;SDS011;46892;45.668;11.756;2022-07-10T07:10:09;1.48;;;1.00;;
55312;SDS011;46892;45.668;11.756;2022-07-10T07:12:35;3.78;;;0.90;;
55312;SDS011;46892;45.668;11.756;2022-07-10T07:15:01;2.35;;;1.20;;
55312;SDS011;46892;45.668;11.756;2022-07-10T07:17:27;2.88;;;1.30;;
55312;SDS011;46892;45.668;11.756;2022-07-10T07:20:01;2.40;;;1.05;;
55312;SDS011;46892;45.668;11.756;2022-07-10T07:22:45;1.38;;;0.90;;
55312;SDS011;46892;45.668;11.756;2022-07-10T07:25:29;2.53;;;0.90;;
55312;SDS011;46892;45.668;11.756;2022-07-10T07:27:55;2.60;;;1.00;;
55312;SDS011;46892;45.668;11.756;2022-07-10T07:30:21;0.98;;;0.80;;
55312;SDS011;46892;45.668;11.756;2022-07-10T07:32:46;4.00;;;1.00;;
55312;SDS011;46892;45.668;11.756;2022-07-10T07:35:13;1.75;;;1.00;;
55312;SDS011;46892;45.668;11.756;2022-07-10T07:37:40;2.88;;;1.02;;
55312;SDS011;46892;45.668;11.756;2022-07-10T07:40:08;2.25;;;0.90;;
55312;SDS011;46892;45.668;11.756;2022-07-10T07:42:38;1.52;;;0.80;;
55312;SDS011;46892;45.668;11.756;2022-07-10T07:45:06;2.38;;;0.80;;
55312;SDS011;46892;45.668;11.756;2022-07-10T07:47:45;3.10;;;0.65;;
55312;SDS011;46892;45.668;11.756;2022-07-10T07:50:12;1.52;;;0.80;;
55312;SDS011;46892;45.668;11.756;2022-07-10T07:52:39;2.70;;;0.95;;
55312;SDS011;46892;45.668;11.756;2022-07-10T07:55:05;3.20;;;0.80;;
55312;SDS011;46892;45.668;11.756;2022-07-10T07:57:31;1.52;;;1.08;;
55312;SDS011;46892;45.668;11.756;2022-07-10T07:59:56;2.03;;;0.70;;
55312;SDS011;46892;45.668;11.756;2022-07-10T08:02:22;2.40;;;0.90;;
55312;SDS011;46892;45.668;11.756;2022-07-10T08:04:48;2.90;;;1.00;;
55312;SDS011;46892;45.668;11.756;2022-07-10T08:07:14;1.75;;;0.90;;
55312;SDS011;46892;45.668;11.756;2022-07-10T08:09:40;2.40;;;0.93;;
55312;SDS011;46892;45.668;11.756;2022-07-10T08:12:05;1.73;;;0.90;;
55312;SDS011;46892;45.668;11.756;2022-07-10T08:14:31;2.47;;;0.90;;
55312;SDS011;46892;45.668;11.756;2022-07-10T08:16:57;4.80;;;1.02;;
55312;SDS011;46892;45.668;11.756;2022-07-10T08:19:22;1.58;;;0.88;;
55312;SDS011;46892;45.668;11.756;2022-07-10T08:21:48;5.47;;;0.95;;
55312;SDS011;46892;45.668;11.756;2022-07-10T08:24:14;4.28;;;1.27;;
55312;SDS011;46892;45.668;11.756;2022-07-10T08:26:40;2.95;;;1.17;;
55312;SDS011;46892;45.668;11.756;2022-07-10T08:29:06;2.83;;;0.93;;
55312;SDS011;46892;45.668;11.756;2022-07-10T08:31:31;2.35;;;1.02;;
55312;SDS011;46892;45.668;11.756;2022-07-10T08:33:58;1.98;;;1.33;;
55312;SDS011;46892;45.668;11.756;2022-07-10T08:36:25;2.22;;;1.23;;
55312;SDS011;46892;45.668;11.756;2022-07-10T08:38:51;3.15;;;1.05;;
55312;SDS011;46892;45.668;11.756;2022-07-10T08:41:20;1.65;;;1.05;;
55312;SDS011;46892;45.668;11.756;2022-07-10T08:43:51;2.72;;;1.33;;
55312;SDS011;46892;45.668;11.756;2022-07-10T08:46:17;2.25;;;0.98;;
55312;SDS011;46892;45.668;11.756;2022-07-10T08:48:49;2.70;;;1.20;;
55312;SDS011;46892;45.668;11.756;2022-07-10T08:51:23;2.95;;;1.50;;
55312;SDS011;46892;45.668;11.756;2022-07-10T08:53:55;2.28;;;1.20;;
55312;SDS011;46892;45.668;11.756;2022-07-10T08:56:24;3.38;;;1.25;;
55312;SDS011;46892;45.668;11.756;2022-07-10T08:58:49;2.05;;;1.20;;
55312;SDS011;46892;45.668;11.756;2022-07-10T09:01:17;3.85;;;1.10;;
55312;SDS011;46892;45.668;11.756;2022-07-10T09:03:48;7.00;;;1.40;;
55312;SDS011;46892;45.668;11.756;2022-07-10T09:06:15;2.10;;;1.23;;
55312;SDS011;46892;45.668;11.756;2022-07-10T09:08:57;3.03;;;1.13;;
55312;SDS011;46892;45.668;11.756;2022-07-10T09:11:26;1.77;;;0.90;;
55312;SDS011;46892;45.668;11.756;2022-07-10T09:13:55;1.77;;;1.05;;
55312;SDS011;46892;45.668;11.756;2022-07-10T09:16:23;3.97;;;1.10;;
55312;SDS011;46892;45.668;11.756;2022-07-10T09:18:49;3.15;;;1.73;;
55312;SDS011;46892;45.668;11.756;2022-07-10T09:21:15;2.97;;;1.40;;
55312;SDS011;46892;45.668;11.756;2022-07-10T09:23:41;2.67;;;1.00;;
55312;SDS011;46892;45.668;11.756;2022-07-10T09:26:07;2.45;;;1.30;;
55312;SDS011;46892;45.668;11.756;2022-07-10T09:28:33;2.25;;;0.90;;
55312;SDS011;46892;45.668;11.756;2022-07-10T09:30:58;1.30;;;0.90;;
55312;SDS011;46892;45.668;11.756;2022-07-10T09:33:28;3.08;;;1.17;;
55312;SDS011;46892;45.668;11.756;2022-07-10T09:36:05;2.60;;;1.05;;
55312;SDS011;46892;45.668;11.756;2022-07-10T09:41:13;1.98;;;1.00;;
55312;SDS011;46892;45.668;11.756;2022-07-10T09:44:01;1.83;;;0.80;;
55312;SDS011;46892;45.668;11.756;2022-07-10T09:49:02;1.27;;;0.88;;
55312;SDS011;46892;45.668;11.756;2022-07-10T09:51:39;1.08;;;0.65;;
55312;SDS011;46892;45.668;11.756;2022-07-10T09:54:11;3.10;;;0.60;;
55312;SDS011;46892;45.668;11.756;2022-07-10T09:59:17;1.15;;;0.63;;
55312;SDS011;46892;45.668;11.756;2022-07-10T10:01:44;1.13;;;0.60;;
55312;SDS011;46892;45.668;11.756;2022-07-10T10:04:18;1.98;;;0.80;;
55312;SDS011;46892;45.668;11.756;2022-07-10T10:06:46;1.70;;;0.75;;
55312;SDS011;46892;45.668;11.756;2022-07-10T10:12:02;1.80;;;0.88;;
55312;SDS011;46892;45.668;11.756;2022-07-10T10:14:33;1.42;;;0.57;;
55312;SDS011;46892;45.668;11.756;2022-07-10T10:17:00;1.25;;;0.70;;
55312;SDS011;46892;45.668;11.756;2022-07-10T10:19:28;0.90;;;0.50;;
55312;SDS011;46892;45.668;11.756;2022-07-10T10:22:15;1.52;;;0.70;;
55312;SDS011;46892;45.668;11.756;2022-07-10T10:24:43;2.55;;;0.60;;
55312;SDS011;46892;45.668;11.756;2022-07-10T10:27:10;2.20;;;0.60;;
55312;SDS011;46892;45.668;11.756;2022-07-10T10:29:36;1.73;;;0.60;;
55312;SDS011;46892;45.668;11.756;2022-07-10T10:32:03;2.50;;;0.70;;
55312;SDS011;46892;45.668;11.756;2022-07-10T10:34:43;1.88;;;0.80;;
55312;SDS011;46892;45.668;11.756;2022-07-10T10:37:28;2.28;;;1.05;;
55312;SDS011;46892;45.668;11.756;2022-07-10T10:39:58;1.70;;;0.73;;
55312;SDS011;46892;45.668;11.756;2022-07-10T10:45:23;3.15;;;0.80;;
55312;SDS011;46892;45.668;11.756;2022-07-10T10:48:04;1.40;;;0.63;;
55312;SDS011;46892;45.668;11.756;2022-07-10T10:50:40;2.22;;;0.80;;
55312;SDS011;46892;45.668;11.756;2022-07-10T10:53:16;1.80;;;0.77;;
55312;SDS011;46892;45.668;11.756;2022-07-10T10:58:35;2.30;;;0.52;;
55312;SDS011;46892;45.668;11.756;2022-07-10T11:03:31;0.90;;;0.60;;
55312;SDS011;46892;45.668;11.756;2022-07-10T11:05:56;1.48;;;0.73;;
55312;SDS011;46892;45.668;11.756;2022-07-10T11:08:40;2.63;;;0.55;;
55312;SDS011;46892;45.668;11.756;2022-07-10T11:13:59;3.47;;;1.08;;
55312;SDS011;46892;45.668;11.756;2022-07-10T11:16:25;2.08;;;0.60;;
55312;SDS011;46892;45.668;11.756;2022-07-10T11:18:54;0.85;;;0.65;;
55312;SDS011;46892;45.668;11.756;2022-07-10T11:21:29;1.45;;;0.80;;
55312;SDS011;46892;45.668;11.756;2022-07-10T11:24:06;1.85;;;0.88;;
55312;SDS011;46892;45.668;11.756;2022-07-10T11:29:58;1.35;;;0.55;;
55312;SDS011;46892;45.668;11.756;2022-07-10T11:32:24;1.17;;;0.70;;
55312;SDS011;46892;45.668;11.756;2022-07-10T11:34:50;2.25;;;0.60;;
55312;SDS011;46892;45.668;11.756;2022-07-10T11:37:16;0.60;;;0.40;;
55312;SDS011;46892;45.668;11.756;2022-07-10T11:39:42;2.42;;;0.75;;
55312;SDS011;46892;45.668;11.756;2022-07-10T11:42:08;1.50;;;0.60;;
55312;SDS011;46892;45.668;11.756;2022-07-10T11:44:34;2.25;;;1.05;;
55312;SDS011;46892;45.668;11.756;2022-07-10T11:47:00;1.60;;;0.60;;
55312;SDS011;46892;45.668;11.756;2022-07-10T11:49:27;1.08;;;0.55;;
55312;SDS011;46892;45.668;11.756;2022-07-10T11:51:54;0.60;;;0.60;;
55312;SDS011;46892;45.668;11.756;2022-07-10T11:54:26;1.27;;;0.55;;
55312;SDS011;46892;45.668;11.756;2022-07-10T11:56:52;0.98;;;0.60;;
55312;SDS011;46892;45.668;11.756;2022-07-10T11:59:23;2.05;;;0.90;;
55312;SDS011;46892;45.668;11.756;2022-07-10T12:01:51;2.78;;;0.70;;
55312;SDS011;46892;45.668;11.756;2022-07-10T12:04:24;1.60;;;0.80;;
55312;SDS011;46892;45.668;11.756;2022-07-10T12:06:51;1.90;;;0.70;;
55312;SDS011;46892;45.668;11.756;2022-07-10T12:09:21;2.17;;;0.57;;
55312;SDS011;46892;45.668;11.756;2022-07-10T12:14:42;1.55;;;0.70;;
55312;SDS011;46892;45.668;11.756;2022-07-10T12:17:11;1.38;;;0.50;;
55312;SDS011;46892;45.668;11.756;2022-07-10T12:19:41;1.20;;;0.65;;
55312;SDS011;46892;45.668;11.756;2022-07-10T12:22:08;0.70;;;0.60;;
55312;SDS011;46892;45.668;11.756;2022-07-10T12:24:34;0.70;;;0.60;;
55312;SDS011;46892;45.668;11.756;2022-07-10T12:27:00;1.77;;;0.47;;
55312;SDS011;46892;45.668;11.756;2022-07-10T12:29:29;1.50;;;0.70;;
55312;SDS011;46892;45.668;11.756;2022-07-10T12:31:56;0.70;;;0.50;;
55312;SDS011;46892;45.668;11.756;2022-07-10T12:34:40;4.20;;;0.50;;
55312;SDS011;46892;45.668;11.756;2022-07-10T12:37:11;3.80;;;0.80;;
55312;SDS011;46892;45.668;11.756;2022-07-10T12:39:48;2.45;;;0.73;;
55312;SDS011;46892;45.668;11.756;2022-07-10T12:42:27;0.75;;;0.60;;
55312;SDS011;46892;45.668;11.756;2022-07-10T12:44:54;2.08;;;0.70;;
55312;SDS011;46892;45.668;11.756;2022-07-10T12:47:42;0.88;;;0.50;;
55312;SDS011;46892;45.668;11.756;2022-07-10T12:50:13;2.58;;;0.70;;
55312;SDS011;46892;45.668;11.756;2022-07-10T12:52:41;1.58;;;0.50;;
55312;SDS011;46892;45.668;11.756;2022-07-10T12:55:22;2.50;;;0.70;;
55312;SDS011;46892;45.668;11.756;2022-07-10T13:00:42;1.48;;;0.90;;
55312;SDS011;46892;45.668;11.756;2022-07-10T13:03:18;0.85;;;0.60;;
55312;SDS011;46892;45.668;11.756;2022-07-10T13:05:45;1.40;;;0.80;;
55312;SDS011;46892;45.668;11.756;2022-07-10T13:10:45;2.38;;;0.60;;
55312;SDS011;46892;45.668;11.756;2022-07-10T13:13:14;1.25;;;0.80;;
55312;SDS011;46892;45.668;11.756;2022-07-10T13:15:40;1.42;;;0.70;;
55312;SDS011;46892;45.668;11.756;2022-07-10T13:18:16;0.75;;;0.60;;
55312;SDS011;46892;45.668;11.756;2022-07-10T13:20:43;1.33;;;0.77;;
55312;SDS011;46892;45.668;11.756;2022-07-10T13:23:10;2.28;;;0.70;;
55312;SDS011;46892;45.668;11.756;2022-07-10T13:25:39;0.82;;;0.60;;
55312;SDS011;46892;45.668;11.756;2022-07-10T13:28:05;1.88;;;0.90;;
55312;SDS011;46892;45.668;11.756;2022-07-10T13:30:33;1.10;;;0.70;;
55312;SDS011;46892;45.668;11.756;2022-07-10T13:32:59;2.13;;;0.82;;
55312;SDS011;46892;45.668;11.756;2022-07-10T13:35:28;2.30;;;0.70;;
55312;SDS011;46892;45.668;11.756;2022-07-10T13:37:54;2.63;;;0.70;;
55312;SDS011;46892;45.668;11.756;2022-07-10T13:40:25;1.50;;;0.77;;
55312;SDS011;46892;45.668;11.756;2022-07-10T13:42:51;1.02;;;0.70;;
55312;SDS011;46892;45.668;11.756;2022-07-10T13:45:18;2.00;;;0.70;;
55312;SDS011;46892;45.668;11.756;2022-07-10T13:47:44;0.88;;;0.70;;
55312;SDS011;46892;45.668;11.756;2022-07-10T13:50:10;1.17;;;0.88;;
55312;SDS011;46892;45.668;11.756;2022-07-10T13:52:36;1.63;;;0.70;;
55312;SDS011;46892;45.668;11.756;2022-07-10T13:55:01;1.33;;;0.80;;
55312;SDS011;46892;45.668;11.756;2022-07-10T13:57:29;2.72;;;1.00;;
55312;SDS011;46892;45.668;11.756;2022-07-10T13:59:55;1.58;;;1.02;;
55312;SDS011;46892;45.668;11.756;2022-07-10T14:02:21;4.68;;;1.35;;
55312;SDS011;46892;45.668;11.756;2022-07-10T14:04:46;3.67;;;0.75;;
55312;SDS011;46892;45.668;11.756;2022-07-10T14:07:12;2.65;;;0.80;;
55312;SDS011;46892;45.668;11.756;2022-07-10T14:09:38;2.97;;;1.10;;
55312;SDS011;46892;45.668;11.756;2022-07-10T14:12:03;1.75;;;0.73;;
55312;SDS011;46892;45.668;11.756;2022-07-10T14:14:30;1.42;;;0.75;;
55312;SDS011;46892;45.668;11.756;2022-07-10T14:16:55;1.92;;;0.95;;
55312;SDS011;46892;45.668;11.756;2022-07-10T14:19:21;2.20;;;0.98;;
55312;SDS011;46892;45.668;11.756;2022-07-10T14:21:47;1.58;;;0.80;;
55312;SDS011;46892;45.668;11.756;2022-07-10T14:24:13;2.10;;;1.08;;
55312;SDS011;46892;45.668;11.756;2022-07-10T14:26:39;3.22;;;1.17;;
55312;SDS011;46892;45.668;11.756;2022-07-10T14:29:05;1.73;;;0.90;;
55312;SDS011;46892;45.668;11.756;2022-07-10T14:31:31;2.30;;;0.98;;
55312;SDS011;46892;45.668;11.756;2022-07-10T14:33:56;3.22;;;1.20;;
55312;SDS011;46892;45.668;11.756;2022-07-10T14:36:22;2.30;;;0.90;;
55312;SDS011;46892;45.668;11.756;2022-07-10T14:38:51;2.30;;;0.73;;
55312;SDS011;46892;45.668;11.756;2022-07-10T14:41:18;1.98;;;0.90;;
55312;SDS011;46892;45.668;11.756;2022-07-10T14:43:44;2.78;;;0.98;;
55312;SDS011;46892;45.668;11.756;2022-07-10T14:46:10;2.42;;;1.20;;
55312;SDS011;46892;45.668;11.756;2022-07-10T14:48:36;1.60;;;1.02;;
55312;SDS011;46892;45.668;11.756;2022-07-10T14:51:01;1.33;;;0.90;;
55312;SDS011;46892;45.668;11.756;2022-07-10T14:53:28;2.60;;;1.17;;
55312;SDS011;46892;45.668;11.756;2022-07-10T14:55:54;2.47;;;0.82;;
55312;SDS011;46892;45.668;11.756;2022-07-10T14:58:20;2.78;;;0.90;;
55312;SDS011;46892;45.668;11.756;2022-07-10T15:00:46;1.88;;;0.90;;
55312;SDS011;46892;45.668;11.756;2022-07-10T15:03:12;1.88;;;0.80;;
55312;SDS011;46892;45.668;11.756;2022-07-10T15:05:37;2.40;;;0.95;;
55312;SDS011;46892;45.668;11.756;2022-07-10T15:08:03;1.48;;;0.88;;